Time;durP1;ratioP1;P1;durP2;ratioP2;P2;SDS_P1;SDS_P2;PMS_P1;PMS_P2;Temp;Humidity;BMP_temperature;BMP_pressure;BME280_temperature;BME280_humidity;BME280_pressure;Samples;Min_cycle;Max_cycle;Signal;HPM_P1;HPM_P2
2021/12/06 00:01:00;;;;;;;46.35;21.73;;;;;;;;;;4963502;28;106128;-63
2021/12/06 00:03:30;;;;;;;50.97;23.67;;;;;;;;;;4966677;28;107359;-64
2021/12/06 00:05:58;;;;;;;52.95;23.13;;;;;;;;;;4947477;28;106591;-62
2021/12/06 00:08:24;;;;;;;48.83;22.83;;;;;;;;;;4960273;28;106121;-65
2021/12/06 00:10:51;;;;;;;47.40;22.65;;;;;;;;;;4944401;28;106553;-64
2021/12/06 00:13:20;;;;;;;46.65;21.60;;;;;;;;;;4964474;28;106211;-64
2021/12/06 00:15:49;;;;;;;56.15;24.25;;;;;;;;;;4960542;28;106900;-64
2021/12/06 00:18:16;;;;;;;51.27;22.73;;;;;;;;;;4957790;28;106035;-64
2021/12/06 00:20:43;;;;;;;55.10;24.35;;;;;;;;;;4957939;28;107258;-64
2021/12/06 00:23:10;;;;;;;51.20;22.45;;;;;;;;;;4967146;28;107396;-62
2021/12/06 00:25:36;;;;;;;51.13;22.95;;;;;;;;;;4967424;28;106070;-62
2021/12/06 00:28:03;;;;;;;50.88;23.70;;;;;;;;;;4965761;28;106947;-62
2021/12/06 00:30:29;;;;;;;56.72;23.75;;;;;;;;;;4967640;28;106783;-62
2021/12/06 00:32:55;;;;;;;57.45;23.75;;;;;;;;;;4969005;28;106320;-63
2021/12/06 00:35:24;;;;;;;56.40;24.02;;;;;;;;;;4958566;28;106552;-62
2021/12/06 00:37:58;;;;;;;53.50;23.55;;;;;;;;;;4934949;28;106645;-63
2021/12/06 00:40:28;;;;;;;48.63;22.65;;;;;;;;;;4964983;28;107069;-62
2021/12/06 00:42:54;;;;;;;53.35;24.35;;;;;;;;;;4966472;28;106385;-62
2021/12/06 00:45:23;;;;;;;46.78;22.05;;;;;;;;;;4948465;28;107074;-62
2021/12/06 00:47:49;;;;;;;48.55;23.00;;;;;;;;;;4967783;28;106231;-62
2021/12/06 00:50:18;;;;;;;56.40;23.20;;;;;;;;;;4967522;28;108097;-63
2021/12/06 00:52:45;;;;;;;51.63;23.02;;;;;;;;;;4967057;28;106979;-62
2021/12/06 00:55:13;;;;;;;55.67;25.00;;;;;;;;;;4968509;28;106946;-63
2021/12/06 00:57:40;;;;;;;58.42;24.98;;;;;;;;;;4966607;28;106102;-62
2021/12/06 01:00:16;;;;;;;55.63;24.25;;;;;;;;;;4950293;28;108910;-63
2021/12/06 01:02:43;;;;;;;54.58;23.02;;;;;;;;;;4941005;28;107802;-64
2021/12/06 01:05:10;;;;;;;55.40;24.27;;;;;;;;;;4949491;28;105736;-63
2021/12/06 01:07:36;;;;;;;58.70;24.05;;;;;;;;;;4966944;28;106460;-64
2021/12/06 01:10:05;;;;;;;59.58;24.08;;;;;;;;;;4966741;28;106756;-64
2021/12/06 01:12:31;;;;;;;54.17;24.02;;;;;;;;;;4965895;28;107217;-64
2021/12/06 01:14:58;;;;;;;61.97;24.42;;;;;;;;;;4946125;28;108536;-64
2021/12/06 01:17:24;;;;;;;60.47;25.55;;;;;;;;;;4964416;28;108607;-64
2021/12/06 01:19:51;;;;;;;58.53;24.75;;;;;;;;;;4947681;28;108045;-64
2021/12/06 01:24:59;;;;;;;58.83;23.85;;;;;;;;;;4941926;28;105777;-64
2021/12/06 01:28:01;;;;;;;62.80;24.90;;;;;;;;;;4945914;28;108757;-64
2021/12/06 01:30:50;;;;;;;59.30;24.25;;;;;;;;;;4962829;28;109966;-64
2021/12/06 01:41:18;;;;;;;66.88;24.63;;;;;;;;;;4950395;28;107433;-64
2021/12/06 01:44:03;;;;;;;57.47;24.55;;;;;;;;;;4959024;28;107403;-63
2021/12/06 01:46:33;;;;;;;69.38;25.05;;;;;;;;;;4947784;28;106330;-64
2021/12/06 01:49:00;;;;;;;65.57;24.40;;;;;;;;;;4943328;28;108916;-63
2021/12/06 01:51:26;;;;;;;68.78;25.45;;;;;;;;;;4948159;28;106979;-64
2021/12/06 01:53:53;;;;;;;59.70;24.48;;;;;;;;;;4958799;28;106531;-66
2021/12/06 01:56:19;;;;;;;57.75;24.55;;;;;;;;;;4966207;28;106008;-63
2021/12/06 01:58:46;;;;;;;69.65;25.27;;;;;;;;;;4937699;28;109301;-63
2021/12/06 02:01:13;;;;;;;56.75;24.00;;;;;;;;;;4957156;28;109622;-64
2021/12/06 02:03:41;;;;;;;70.97;25.33;;;;;;;;;;4939657;23;108248;-64
2021/12/06 02:06:09;;;;;;;66.85;25.08;;;;;;;;;;4924706;28;107209;-65
2021/12/06 02:08:35;;;;;;;69.82;25.60;;;;;;;;;;4940646;28;108621;-64
2021/12/06 02:11:03;;;;;;;61.40;25.60;;;;;;;;;;4931614;28;109063;-64
2021/12/06 02:14:02;;;;;;;66.00;25.67;;;;;;;;;;4920848;28;106507;-62
2021/12/06 02:16:40;;;;;;;69.63;25.55;;;;;;;;;;4926702;28;108094;-62
2021/12/06 02:19:07;;;;;;;67.97;25.67;;;;;;;;;;4916534;28;108606;-63
2021/12/06 02:21:36;;;;;;;67.47;25.17;;;;;;;;;;4924832;28;106190;-61
2021/12/06 02:24:06;;;;;;;68.13;25.02;;;;;;;;;;4922587;28;107982;-64
2021/12/06 02:26:33;;;;;;;65.80;25.13;;;;;;;;;;4905569;28;106202;-64
2021/12/06 02:29:00;;;;;;;65.63;25.05;;;;;;;;;;4925432;28;108300;-61
2021/12/06 02:31:27;;;;;;;72.68;26.13;;;;;;;;;;4924649;28;108876;-62
2021/12/06 02:33:54;;;;;;;69.97;25.75;;;;;;;;;;4938493;28;106209;-64
2021/12/06 02:36:22;;;;;;;69.10;25.63;;;;;;;;;;4943329;28;108590;-61
2021/12/06 02:38:49;;;;;;;65.20;24.88;;;;;;;;;;4922022;28;109210;-61
2021/12/06 02:41:18;;;;;;;79.25;27.05;;;;;;;;;;4925759;28;106283;-61
2021/12/06 02:43:44;;;;;;;69.30;26.45;;;;;;;;;;4924746;28;108153;-63
2021/12/06 02:46:13;;;;;;;62.88;24.77;;;;;;;;;;4927931;28;109292;-66
2021/12/06 02:48:40;;;;;;;63.83;24.35;;;;;;;;;;4925327;28;108523;-62
2021/12/06 02:51:07;;;;;;;67.93;25.13;;;;;;;;;;4924671;28;109038;-61
2021/12/06 02:53:35;;;;;;;66.82;25.27;;;;;;;;;;4940543;28;106701;-62
2021/12/06 02:56:06;;;;;;;71.47;25.70;;;;;;;;;;4925390;28;108013;-62
2021/12/06 03:01:10;;;;;;;75.03;25.15;;;;;;;;;;4924424;28;106434;-62
2021/12/06 03:03:38;;;;;;;68.35;25.38;;;;;;;;;;4923085;28;108846;-62
2021/12/06 03:06:08;;;;;;;66.63;24.92;;;;;;;;;;4920996;28;109093;-62
2021/12/06 03:08:36;;;;;;;65.55;24.38;;;;;;;;;;4916678;28;106168;-62
2021/12/06 03:11:03;;;;;;;72.38;25.20;;;;;;;;;;4940129;28;108865;-62
2021/12/06 03:13:30;;;;;;;71.18;24.83;;;;;;;;;;4938772;28;106650;-62
2021/12/06 03:15:57;;;;;;;70.57;24.30;;;;;;;;;;4925965;28;107644;-63
2021/12/06 03:18:24;;;;;;;71.82;25.63;;;;;;;;;;4925796;28;107324;-62
2021/12/06 03:20:51;;;;;;;79.40;26.15;;;;;;;;;;4923108;28;107320;-62
2021/12/06 03:23:17;;;;;;;71.25;26.33;;;;;;;;;;4919358;28;107074;-62
2021/12/06 03:25:44;;;;;;;68.53;26.75;;;;;;;;;;4918848;28;108766;-63
2021/12/06 03:28:12;;;;;;;71.82;25.55;;;;;;;;;;4920366;28;106599;-62
2021/12/06 03:30:41;;;;;;;74.85;26.02;;;;;;;;;;4923447;28;107876;-64
2021/12/06 03:33:08;;;;;;;73.13;26.60;;;;;;;;;;4931267;28;106991;-64
2021/12/06 03:35:35;;;;;;;78.70;25.75;;;;;;;;;;4918847;28;108195;-63
2021/12/06 03:38:01;;;;;;;75.88;25.10;;;;;;;;;;4924364;28;109519;-64
2021/12/06 03:40:28;;;;;;;72.97;26.02;;;;;;;;;;4923496;28;107172;-64
2021/12/06 03:42:55;;;;;;;76.88;26.30;;;;;;;;;;4921076;28;108324;-64
2021/12/06 03:45:21;;;;;;;73.57;25.92;;;;;;;;;;4925055;28;109366;-64
2021/12/06 03:47:47;;;;;;;73.43;26.65;;;;;;;;;;4918304;28;106771;-63
2021/12/06 03:50:15;;;;;;;70.88;25.23;;;;;;;;;;4917472;28;108330;-64
2021/12/06 03:52:42;;;;;;;77.25;26.67;;;;;;;;;;4927370;28;109337;-63
2021/12/06 03:55:09;;;;;;;73.00;26.08;;;;;;;;;;4939007;28;108310;-63
2021/12/06 03:57:36;;;;;;;77.75;26.65;;;;;;;;;;4925225;28;109690;-62
2021/12/06 04:00:07;;;;;;;82.80;27.58;;;;;;;;;;4923551;28;107323;-64
2021/12/06 04:02:39;;;;;;;77.25;24.73;;;;;;;;;;4925468;28;106676;-62
2021/12/06 04:05:06;;;;;;;68.03;26.27;;;;;;;;;;4911313;28;109423;-62
2021/12/06 04:07:33;;;;;;;70.35;25.60;;;;;;;;;;4902988;28;106294;-63
2021/12/06 04:10:00;;;;;;;72.90;26.70;;;;;;;;;;4926142;28;107786;-62
2021/12/06 04:12:28;;;;;;;77.10;27.17;;;;;;;;;;4926152;28;109432;-63
2021/12/06 04:14:56;;;;;;;73.30;26.08;;;;;;;;;;4931942;28;106660;-62
2021/12/06 04:17:22;;;;;;;81.22;26.08;;;;;;;;;;4925909;28;106014;-62
2021/12/06 04:19:49;;;;;;;82.03;26.17;;;;;;;;;;4927074;28;107167;-62
2021/12/06 04:22:16;;;;;;;76.57;25.52;;;;;;;;;;4927004;28;105858;-62
2021/12/06 04:24:44;;;;;;;77.00;25.90;;;;;;;;;;4922818;28;108696;-62
2021/12/06 04:27:15;;;;;;;71.28;24.63;;;;;;;;;;4940566;28;106825;-62
2021/12/06 04:29:45;;;;;;;89.10;27.70;;;;;;;;;;4927304;28;108801;-62
2021/12/06 04:32:14;;;;;;;76.95;26.02;;;;;;;;;;4922964;28;109020;-62
2021/12/06 04:34:41;;;;;;;68.57;24.80;;;;;;;;;;4947003;28;106664;-62
2021/12/06 04:37:10;;;;;;;86.68;26.27;;;;;;;;;;4926170;28;109225;-63
2021/12/06 04:39:38;;;;;;;85.70;26.35;;;;;;;;;;4917612;28;106219;-61
2021/12/06 04:42:05;;;;;;;80.57;26.58;;;;;;;;;;4941595;28;108552;-62
2021/12/06 04:44:32;;;;;;;77.55;25.23;;;;;;;;;;4917726;28;110135;-62
2021/12/06 04:46:59;;;;;;;74.75;25.10;;;;;;;;;;4942623;28;106714;-63
2021/12/06 04:49:28;;;;;;;87.80;27.00;;;;;;;;;;4925311;28;106752;-62
2021/12/06 04:51:58;;;;;;;82.68;25.55;;;;;;;;;;4927370;28;107263;-62
2021/12/06 04:54:25;;;;;;;;;;;;;;;;;;4941988;28;106156;-62
2021/12/06 04:56:55;;;;;;;70.65;24.17;;;;;;;;;;4929166;28;135317;-62
2021/12/06 04:59:25;;;;;;;81.65;26.05;;;;;;;;;;4929558;28;106250;-62
2021/12/06 05:01:55;;;;;;;77.68;26.77;;;;;;;;;;4943127;28;109465;-65
2021/12/06 05:04:24;;;;;;;80.47;27.52;;;;;;;;;;4925012;28;106039;-62
2021/12/06 05:06:52;;;;;;;82.47;27.05;;;;;;;;;;4927481;28;106148;-63
2021/12/06 05:09:21;;;;;;;83.35;26.88;;;;;;;;;;4940015;28;108453;-62
2021/12/06 05:11:48;;;;;;;88.78;26.48;;;;;;;;;;4927143;28;107263;-62
2021/12/06 05:14:15;;;;;;;76.15;25.25;;;;;;;;;;4923394;28;105923;-62
2021/12/06 05:16:42;;;;;;;84.28;27.50;;;;;;;;;;4941930;28;108444;-62
2021/12/06 05:19:08;;;;;;;76.50;26.38;;;;;;;;;;4945445;28;108525;-62
2021/12/06 05:21:37;;;;;;;76.10;27.25;;;;;;;;;;4940509;28;107081;-62
2021/12/06 05:24:06;;;;;;;72.40;25.77;;;;;;;;;;4924985;28;107312;-62
2021/12/06 05:26:35;;;;;;;85.82;27.35;;;;;;;;;;4925756;28;105736;-63
2021/12/06 05:29:04;;;;;;;71.82;26.10;;;;;;;;;;4921948;28;107973;-62
2021/12/06 05:31:30;;;;;;;76.53;26.48;;;;;;;;;;4927633;28;107192;-62
2021/12/06 05:34:02;;;;;;;73.20;25.70;;;;;;;;;;4941273;28;107238;-62
2021/12/06 05:36:29;;;;;;;78.80;26.95;;;;;;;;;;4926721;28;107100;-62
2021/12/06 05:38:55;;;;;;;83.63;26.00;;;;;;;;;;4923709;28;106369;-62
2021/12/06 05:41:22;;;;;;;88.78;26.58;;;;;;;;;;4930823;28;105883;-62
2021/12/06 05:43:48;;;;;;;85.55;27.23;;;;;;;;;;4924081;28;107310;-62
2021/12/06 05:46:15;;;;;;;92.32;28.15;;;;;;;;;;4926902;28;106281;-63
2021/12/06 05:48:41;;;;;;;88.03;28.45;;;;;;;;;;4922518;28;105872;-62
2021/12/06 05:51:07;;;;;;;78.70;27.20;;;;;;;;;;4920114;28;107551;-64
2021/12/06 05:53:34;;;;;;;75.38;28.20;;;;;;;;;;4921205;28;106586;-63
2021/12/06 05:56:01;;;;;;;85.85;28.08;;;;;;;;;;4927423;28;108610;-62
2021/12/06 05:58:28;;;;;;;73.15;26.40;;;;;;;;;;4926362;28;107420;-62
2021/12/06 06:00:56;;;;;;;79.32;27.55;;;;;;;;;;4926333;28;105978;-63
2021/12/06 06:03:23;;;;;;;80.53;26.30;;;;;;;;;;4931141;28;106264;-62
2021/12/06 06:05:49;;;;;;;83.78;27.90;;;;;;;;;;4927294;28;106647;-63
2021/12/06 06:08:16;;;;;;;80.10;28.25;;;;;;;;;;4925123;28;106274;-63
2021/12/06 06:10:45;;;;;;;84.45;28.48;;;;;;;;;;4924495;28;107771;-62
2021/12/06 06:13:11;;;;;;;90.28;28.58;;;;;;;;;;4916176;28;106357;-63
2021/12/06 06:15:38;;;;;;;82.88;28.10;;;;;;;;;;4924961;28;107420;-63
2021/12/06 06:18:05;;;;;;;84.22;29.35;;;;;;;;;;4925313;28;106412;-63
2021/12/06 06:20:51;;;;;;;75.85;27.50;;;;;;;;;;4922330;28;105771;-61
2021/12/06 06:23:19;;;;;;;83.95;28.65;;;;;;;;;;4919144;28;107210;-62
2021/12/06 06:25:46;;;;;;;77.32;29.35;;;;;;;;;;4930405;28;107464;-63
2021/12/06 06:28:13;;;;;;;77.30;27.67;;;;;;;;;;4927046;28;107626;-62
2021/12/06 06:30:39;;;;;;;81.43;29.20;;;;;;;;;;4915379;28;107689;-63
2021/12/06 06:33:06;;;;;;;80.82;29.48;;;;;;;;;;4920615;28;105873;-62
2021/12/06 06:35:33;;;;;;;88.10;30.10;;;;;;;;;;4927251;28;106923;-62
2021/12/06 06:37:59;;;;;;;85.03;28.25;;;;;;;;;;4925772;28;107050;-61
2021/12/06 06:40:26;;;;;;;87.05;27.83;;;;;;;;;;4926009;28;105896;-62
2021/12/06 06:42:52;;;;;;;86.32;28.80;;;;;;;;;;4927494;28;106947;-63
2021/12/06 06:45:20;;;;;;;81.03;28.73;;;;;;;;;;4930275;28;106427;-63
2021/12/06 06:47:46;;;;;;;81.38;28.02;;;;;;;;;;4927242;28;106712;-63
2021/12/06 06:50:13;;;;;;;81.30;28.63;;;;;;;;;;4926553;28;108176;-62
2021/12/06 06:52:39;;;;;;;82.90;28.77;;;;;;;;;;4920164;28;106158;-64
2021/12/06 06:55:07;;;;;;;80.43;28.98;;;;;;;;;;4926477;28;107107;-62
2021/12/06 06:57:33;;;;;;;90.03;29.38;;;;;;;;;;4926175;28;107403;-63
2021/12/06 07:00:00;;;;;;;77.90;29.95;;;;;;;;;;4926645;28;105971;-63
2021/12/06 07:02:26;;;;;;;74.85;28.13;;;;;;;;;;4923786;28;108827;-63
2021/12/06 07:04:53;;;;;;;78.03;28.92;;;;;;;;;;4925592;28;107602;-64
2021/12/06 07:07:19;;;;;;;77.68;28.77;;;;;;;;;;4930398;28;106727;-63
2021/12/06 07:09:46;;;;;;;83.30;30.08;;;;;;;;;;4927011;28;106393;-63
2021/12/06 07:12:16;;;;;;;88.50;29.77;;;;;;;;;;4917718;28;107329;-63
2021/12/06 07:14:43;;;;;;;81.93;28.25;;;;;;;;;;4915614;28;107696;-63
2021/12/06 07:17:09;;;;;;;80.22;28.67;;;;;;;;;;4922425;28;108223;-68
2021/12/06 07:19:36;;;;;;;83.30;28.27;;;;;;;;;;4926082;28;106369;-63
2021/12/06 07:22:03;;;;;;;79.88;29.98;;;;;;;;;;4925121;28;106721;-63
2021/12/06 07:24:29;;;;;;;90.00;30.23;;;;;;;;;;4923328;28;107290;-63
2021/12/06 07:26:56;;;;;;;79.60;28.23;;;;;;;;;;4921606;28;106181;-63
2021/12/06 07:29:22;;;;;;;82.85;28.77;;;;;;;;;;4929708;28;107208;-63
2021/12/06 07:31:49;;;;;;;83.57;29.42;;;;;;;;;;4926793;28;106667;-63
2021/12/06 07:34:15;;;;;;;85.43;29.65;;;;;;;;;;4924690;28;107782;-63
2021/12/06 07:36:42;;;;;;;81.68;29.90;;;;;;;;;;4926412;28;108111;-63
2021/12/06 07:39:10;;;;;;;92.30;28.55;;;;;;;;;;4921948;28;106313;-63
2021/12/06 07:41:36;;;;;;;77.28;27.05;;;;;;;;;;4925852;28;107318;-63
2021/12/06 07:44:04;;;;;;;86.28;30.00;;;;;;;;;;4927533;28;107279;-63
2021/12/06 07:46:30;;;;;;;78.18;28.67;;;;;;;;;;4944560;28;106177;-63
2021/12/06 07:48:57;;;;;;;82.78;29.63;;;;;;;;;;4928905;28;107950;-63
2021/12/06 07:51:24;;;;;;;71.90;28.00;;;;;;;;;;4931352;28;106287;-64
2021/12/06 07:53:51;;;;;;;86.38;29.63;;;;;;;;;;4928077;28;106706;-63
2021/12/06 07:56:18;;;;;;;79.45;28.23;;;;;;;;;;4923172;28;107667;-63
2021/12/06 07:58:45;;;;;;;86.38;31.42;;;;;;;;;;4927644;28;106060;-63
2021/12/06 08:01:12;;;;;;;87.25;29.55;;;;;;;;;;4927784;28;106678;-63
2021/12/06 08:03:39;;;;;;;86.85;30.35;;;;;;;;;;4922990;28;107093;-63
2021/12/06 08:06:05;;;;;;;80.00;29.08;;;;;;;;;;4926887;28;107038;-64
2021/12/06 08:08:33;;;;;;;82.53;28.33;;;;;;;;;;4928450;28;106434;-64
2021/12/06 08:11:02;;;;;;;83.78;29.42;;;;;;;;;;4924034;28;107426;-64
2021/12/06 08:13:30;;;;;;;84.88;30.40;;;;;;;;;;4930948;28;106287;-64
2021/12/06 08:15:59;;;;;;;78.10;28.67;;;;;;;;;;4921807;28;107439;-64
2021/12/06 08:18:25;;;;;;;90.68;29.85;;;;;;;;;;4926635;28;107396;-63
2021/12/06 08:20:52;;;;;;;86.25;30.15;;;;;;;;;;4929402;28;107102;-63
2021/12/06 08:23:19;;;;;;;88.93;29.70;;;;;;;;;;4925610;28;107420;-63
2021/12/06 08:25:47;;;;;;;90.82;28.98;;;;;;;;;;4923019;28;107472;-63
2021/12/06 08:28:15;;;;;;;86.20;30.52;;;;;;;;;;4926454;28;106473;-65
2021/12/06 08:30:42;;;;;;;82.97;30.60;;;;;;;;;;4925348;28;106943;-66
2021/12/06 08:33:09;;;;;;;77.50;29.85;;;;;;;;;;4927443;28;105891;-65
2021/12/06 08:35:36;;;;;;;80.13;29.88;;;;;;;;;;4931533;28;106848;-63
2021/12/06 08:38:03;;;;;;;84.32;30.05;;;;;;;;;;4917951;28;106640;-62
2021/12/06 08:40:29;;;;;;;83.35;29.75;;;;;;;;;;4924815;28;106847;-63
2021/12/06 08:42:56;;;;;;;81.30;29.58;;;;;;;;;;4926275;28;107510;-64
2021/12/06 08:45:22;;;;;;;74.57;28.02;;;;;;;;;;4927243;28;106145;-64
2021/12/06 08:47:49;;;;;;;78.97;29.10;;;;;;;;;;4928883;28;106658;-63
2021/12/06 08:50:18;;;;;;;81.88;28.92;;;;;;;;;;4925896;28;106164;-63
2021/12/06 08:52:44;;;;;;;73.50;29.53;;;;;;;;;;4926625;28;106395;-63
2021/12/06 08:55:11;;;;;;;80.47;31.27;;;;;;;;;;4928588;28;106032;-63
2021/12/06 08:57:37;;;;;;;83.97;31.40;;;;;;;;;;4923432;28;106157;-64
2021/12/06 09:00:10;;;;;;;84.82;30.52;;;;;;;;;;4921539;28;107233;-63
2021/12/06 09:02:38;;;;;;;91.60;32.25;;;;;;;;;;4926053;28;107561;-63
2021/12/06 09:05:23;;;;;;;88.95;33.30;;;;;;;;;;4924403;28;106291;-63
2021/12/06 09:07:49;;;;;;;86.68;31.10;;;;;;;;;;4925306;28;106897;-63
2021/12/06 09:10:16;;;;;;;85.05;31.02;;;;;;;;;;4923798;28;110479;-63
2021/12/06 09:12:43;;;;;;;79.28;30.33;;;;;;;;;;4926436;28;106045;-63
2021/12/06 09:15:11;;;;;;;81.50;30.15;;;;;;;;;;4922657;28;106118;-64
2021/12/06 09:17:38;;;;;;;74.45;29.27;;;;;;;;;;4930971;28;107747;-63
2021/12/06 09:20:06;;;;;;;80.82;29.48;;;;;;;;;;4921681;28;106023;-64
2021/12/06 09:22:32;;;;;;;81.05;29.50;;;;;;;;;;4924792;28;108364;-64
2021/12/06 09:24:59;;;;;;;91.22;30.23;;;;;;;;;;4924910;28;106598;-65
2021/12/06 09:27:25;;;;;;;88.57;31.35;;;;;;;;;;4928153;28;106230;-65
2021/12/06 09:29:55;;;;;;;84.38;30.38;;;;;;;;;;4925803;28;107897;-65
2021/12/06 09:32:22;;;;;;;;;;;;;;;;;;4928479;28;106498;-64
2021/12/06 09:34:48;;;;;;;73.28;28.50;;;;;;;;;;4930123;28;120620;-63
2021/12/06 09:37:16;;;;;;;75.90;29.67;;;;;;;;;;4924401;28;108796;-65
2021/12/06 09:39:43;;;;;;;90.13;28.27;;;;;;;;;;4947988;28;106042;-65
2021/12/06 09:42:09;;;;;;;83.45;28.55;;;;;;;;;;4925457;28;109750;-65
2021/12/06 09:44:36;;;;;;;79.65;28.42;;;;;;;;;;4928663;28;105567;-64
2021/12/06 09:47:03;;;;;;;83.32;31.25;;;;;;;;;;4924433;28;106891;-65
2021/12/06 09:49:29;;;;;;;94.05;32.20;;;;;;;;;;4923306;28;106663;-63
2021/12/06 09:51:59;;;;;;;84.57;31.05;;;;;;;;;;4923859;28;106447;-65
2021/12/06 09:54:27;;;;;;;85.32;30.75;;;;;;;;;;4922244;28;106767;-64
2021/12/06 09:56:54;;;;;;;88.47;30.27;;;;;;;;;;4922101;28;107792;-64
2021/12/06 09:59:23;;;;;;;85.30;30.55;;;;;;;;;;4928690;28;106206;-63
2021/12/06 10:01:58;;;;;;;84.78;30.85;;;;;;;;;;4922315;28;106287;-64
2021/12/06 10:04:26;;;;;;;94.90;30.40;;;;;;;;;;4924082;28;105741;-64
2021/12/06 10:06:53;;;;;;;96.93;29.17;;;;;;;;;;4925961;28;106947;-66
2021/12/06 10:09:20;;;;;;;109.18;31.35;;;;;;;;;;4920280;28;106336;-63
2021/12/06 10:11:47;;;;;;;120.40;32.15;;;;;;;;;;4926643;28;106530;-63
2021/12/06 10:14:15;;;;;;;102.53;32.05;;;;;;;;;;4924494;28;107722;-64
2021/12/06 10:16:42;;;;;;;144.90;33.30;;;;;;;;;;4922945;28;106226;-63
2021/12/06 10:19:09;;;;;;;96.80;32.63;;;;;;;;;;4929032;28;106272;-64
2021/12/06 10:21:36;;;;;;;88.57;31.58;;;;;;;;;;4925475;28;107830;-63
2021/12/06 10:24:02;;;;;;;94.38;31.83;;;;;;;;;;4927657;28;107114;-63
2021/12/06 10:26:30;;;;;;;103.20;32.58;;;;;;;;;;4921870;28;107124;-63
2021/12/06 10:29:02;;;;;;;123.80;34.63;;;;;;;;;;4922839;28;109815;-64
2021/12/06 10:31:29;;;;;;;94.78;32.78;;;;;;;;;;4927466;28;106513;-64
2021/12/06 10:33:56;;;;;;;100.30;33.45;;;;;;;;;;4925166;28;107004;-63
2021/12/06 10:36:24;;;;;;;99.53;34.13;;;;;;;;;;4918412;28;108303;-62
2021/12/06 10:38:53;;;;;;;105.80;32.92;;;;;;;;;;4921876;28;107409;-63
2021/12/06 10:41:25;;;;;;;113.22;36.00;;;;;;;;;;4926000;28;106447;-63
2021/12/06 10:43:55;;;;;;;104.47;34.35;;;;;;;;;;4926478;28;106585;-63
2021/12/06 10:46:22;;;;;;;104.70;33.58;;;;;;;;;;4922940;28;107825;-63
2021/12/06 10:48:51;;;;;;;121.47;36.55;;;;;;;;;;4919719;28;107476;-63
2021/12/06 10:51:18;;;;;;;111.20;34.63;;;;;;;;;;4922104;28;106605;-63
2021/12/06 10:53:55;;;;;;;109.95;34.72;;;;;;;;;;4923597;28;106063;-62
2021/12/06 10:56:25;;;;;;;108.32;33.72;;;;;;;;;;4925939;28;106923;-63
2021/12/06 10:58:54;;;;;;;111.88;35.55;;;;;;;;;;4926954;28;107886;-63
2021/12/06 11:01:23;;;;;;;113.75;35.17;;;;;;;;;;4924752;28;107149;-62
2021/12/06 11:03:51;;;;;;;;;;;;;;;;;;4924029;28;106206;-66
2021/12/06 11:06:20;;;;;;;115.20;34.72;;;;;;;;;;4927386;28;106447;-66
2021/12/06 11:08:48;;;;;;;132.60;36.88;;;;;;;;;;4925245;28;107765;-65
2021/12/06 11:11:20;;;;;;;124.43;36.80;;;;;;;;;;4924932;28;106787;-65
2021/12/06 11:13:48;;;;;;;136.25;35.45;;;;;;;;;;4924237;28;107132;-64
2021/12/06 11:16:43;;;;;;;115.47;33.95;;;;;;;;;;4926300;28;107663;-64
2021/12/06 11:19:11;;;;;;;125.80;34.50;;;;;;;;;;4906561;28;107103;-63
2021/12/06 11:21:41;;;;;;;110.93;32.90;;;;;;;;;;4920479;28;107632;-63
2021/12/06 11:24:08;;;;;;;109.63;32.05;;;;;;;;;;4923013;28;106974;-62
2021/12/06 11:26:43;;;;;;;101.85;31.30;;;;;;;;;;4926123;28;105914;-64
2021/12/06 11:29:10;;;;;;;97.45;31.00;;;;;;;;;;4929080;28;107316;-63
2021/12/06 11:31:36;;;;;;;98.88;30.13;;;;;;;;;;4926413;28;106000;-65
2021/12/06 11:34:05;;;;;;;103.75;32.30;;;;;;;;;;4925272;28;107982;-62
2021/12/06 11:36:31;;;;;;;92.25;30.75;;;;;;;;;;4927280;28;109045;-62
2021/12/06 11:39:00;;;;;;;91.97;30.60;;;;;;;;;;4929791;28;107812;-62
2021/12/06 11:41:27;;;;;;;89.70;28.30;;;;;;;;;;4929043;28;106712;-62
2021/12/06 11:43:53;;;;;;;89.07;28.15;;;;;;;;;;4928721;28;107379;-65
2021/12/06 11:46:27;;;;;;;77.65;27.08;;;;;;;;;;4921443;28;106372;-62
2021/12/06 11:48:54;;;;;;;76.07;26.52;;;;;;;;;;4924850;28;106786;-62
2021/12/06 11:51:22;;;;;;;77.03;27.48;;;;;;;;;;4926340;28;106370;-61
2021/12/06 11:53:50;;;;;;;70.43;24.70;;;;;;;;;;4929252;28;106468;-62
2021/12/06 11:56:20;;;;;;;73.47;24.65;;;;;;;;;;4927173;28;108138;-62
2021/12/06 11:58:48;;;;;;;68.93;23.98;;;;;;;;;;4927889;28;105858;-62
2021/12/06 12:01:21;;;;;;;75.18;25.92;;;;;;;;;;4925352;28;106815;-62
2021/12/06 12:03:53;;;;;;;72.40;25.48;;;;;;;;;;4922069;28;107004;-63
2021/12/06 12:06:21;;;;;;;72.20;24.08;;;;;;;;;;4923240;28;106506;-62
2021/12/06 12:08:48;;;;;;;66.63;24.63;;;;;;;;;;4922700;28;107352;-63
2021/12/06 12:11:14;;;;;;;66.05;23.63;;;;;;;;;;4921546;28;107357;-64
2021/12/06 12:13:43;;;;;;;62.83;21.92;;;;;;;;;;4928964;28;107417;-63
2021/12/06 12:16:10;;;;;;;71.55;24.73;;;;;;;;;;4923869;28;107485;-63
2021/12/06 12:18:38;;;;;;;64.15;23.40;;;;;;;;;;4927493;28;106091;-63
2021/12/06 12:21:05;;;;;;;59.55;22.10;;;;;;;;;;4928269;28;106949;-63
2021/12/06 12:23:32;;;;;;;58.90;22.05;;;;;;;;;;4922032;28;106599;-63
2021/12/06 12:26:04;;;;;;;55.95;21.98;;;;;;;;;;4948269;28;107009;-63
2021/12/06 12:28:37;;;;;;;52.88;21.17;;;;;;;;;;4924154;28;107047;-64
2021/12/06 12:31:05;;;;;;;48.95;20.63;;;;;;;;;;4928760;28;107553;-63
2021/12/06 12:33:32;;;;;;;62.17;21.50;;;;;;;;;;4924852;28;106272;-63
2021/12/06 12:36:05;;;;;;;55.10;22.27;;;;;;;;;;4939227;28;106437;-64
2021/12/06 12:38:34;;;;;;;48.67;19.98;;;;;;;;;;4928744;28;106585;-64
2021/12/06 12:41:03;;;;;;;53.15;19.33;;;;;;;;;;4924783;28;106957;-63
2021/12/06 12:43:34;;;;;;;47.03;18.52;;;;;;;;;;4921554;28;107458;-64
2021/12/06 12:46:09;;;;;;;48.60;19.13;;;;;;;;;;4921638;28;105822;-63
2021/12/06 12:48:47;;;;;;;49.17;20.73;;;;;;;;;;4927669;28;107462;-63
2021/12/06 12:51:15;;;;;;;51.60;19.75;;;;;;;;;;4928907;28;107322;-64
2021/12/06 12:53:53;;;;;;;43.67;18.13;;;;;;;;;;4928891;28;106382;-64
2021/12/06 12:56:30;;;;;;;44.60;17.00;;;;;;;;;;4916544;28;106600;-63
2021/12/06 12:58:58;;;;;;;48.75;19.42;;;;;;;;;;4932610;28;106702;-63
2021/12/06 13:01:25;;;;;;;49.47;18.35;;;;;;;;;;4928392;28;107284;-64
2021/12/06 13:03:54;;;;;;;43.35;18.40;;;;;;;;;;4920054;28;106990;-63
2021/12/06 13:06:30;;;;;;;48.15;18.95;;;;;;;;;;4922515;28;106506;-63
2021/12/06 13:09:03;;;;;;;47.25;19.15;;;;;;;;;;4925481;28;107511;-64
2021/12/06 13:11:43;;;;;;;48.83;18.80;;;;;;;;;;4928138;28;107662;-68
